Time;durP1;ratioP1;P1;durP2;ratioP2;P2;SDS_P1;SDS_P2;PMS_P1;PMS_P2;Temp;Humidity;BMP_temperature;BMP_pressure;BME280_temperature;BME280_humidity;BME280_pressure;Samples;Min_cycle;Max_cycle;Signal;HPM_P1;HPM_P2
2023/01/06 00:02:25;;;;;;;3.15;1.50;;;11.10;97.50;;;;;;4813911;29;20050;-89
2023/01/06 00:05:00;;;;;;;4.63;2.00;;;11.00;97.60;;;;;;4820612;29;20500;-88
2023/01/06 00:07:29;;;;;;;3.08;1.80;;;11.00;97.70;;;;;;4810333;29;20086;-88
2023/01/06 00:09:56;;;;;;;3.72;1.52;;;11.00;97.70;;;;;;4824907;29;20486;-88
2023/01/06 00:12:27;;;;;;;3.22;1.65;;;11.00;97.70;;;;;;4810013;29;20054;-88
2023/01/06 00:14:58;;;;;;;5.22;2.10;;;11.00;97.70;;;;;;4840005;29;20403;-88
2023/01/06 00:17:25;;;;;;;4.00;1.75;;;11.10;97.70;;;;;;4810156;29;20075;-88
2023/01/06 00:19:55;;;;;;;6.28;2.08;;;11.10;97.60;;;;;;4809806;29;20057;-88
2023/01/06 00:22:22;;;;;;;6.85;2.28;;;11.10;97.70;;;;;;4816318;29;20058;-87
2023/01/06 00:24:50;;;;;;;4.03;1.48;;;11.10;97.60;;;;;;4809780;29;20054;-88
2023/01/06 00:27:17;;;;;;;4.82;2.10;;;11.10;97.60;;;;;;4794914;29;20050;-88
2023/01/06 00:29:45;;;;;;;4.70;2.42;;;11.10;97.60;;;;;;4836983;29;20057;-88
2023/01/06 00:32:13;;;;;;;3.67;1.60;;;11.10;97.50;;;;;;4810316;29;20555;-87
2023/01/06 00:34:40;;;;;;;4.72;2.00;;;11.10;97.50;;;;;;4809623;29;20478;-87
2023/01/06 00:37:07;;;;;;;7.05;2.13;;;11.10;97.50;;;;;;4811159;29;20501;-87
2023/01/06 00:39:34;;;;;;;5.15;2.13;;;11.20;97.50;;;;;;4791557;29;20066;-87
2023/01/06 00:42:04;;;;;;;4.68;1.48;;;11.20;97.50;;;;;;4821122;29;20057;-87
2023/01/06 00:44:34;;;;;;;3.78;1.90;;;11.20;97.50;;;;;;4819290;29;20057;-88
2023/01/06 00:47:06;;;;;;;2.58;1.35;;;11.10;97.50;;;;;;4807715;29;20103;-87
2023/01/06 00:49:35;;;;;;;4.00;1.90;;;11.20;97.50;;;;;;4809744;29;20133;-87
2023/01/06 00:52:05;;;;;;;4.07;1.77;;;11.10;97.50;;;;;;4807525;29;20107;-88
2023/01/06 00:54:35;;;;;;;3.47;2.20;;;11.10;97.40;;;;;;4795468;29;20051;-88
2023/01/06 00:57:05;;;;;;;3.35;1.73;;;11.20;97.40;;;;;;4809566;29;20489;-88
2023/01/06 00:59:33;;;;;;;4.05;2.38;;;11.20;97.40;;;;;;4809176;29;20046;-88
2023/01/06 01:02:02;;;;;;;4.53;2.00;;;11.10;97.40;;;;;;4821946;29;20042;-88
2023/01/06 01:04:32;;;;;;;3.90;1.83;;;11.20;97.40;;;;;;4822497;29;20058;-88
2023/01/06 01:06:59;;;;;;;3.75;1.83;;;11.20;97.40;;;;;;4809263;29;20137;-88
2023/01/06 01:09:29;;;;;;;5.20;1.95;;;11.20;97.40;;;;;;4808895;29;20394;-88
2023/01/06 01:12:10;;;;;;;4.18;1.98;;;11.10;97.40;;;;;;4809175;29;20054;-88
2023/01/06 01:14:49;;;;;;;3.00;1.67;;;11.20;97.40;;;;;;4824170;29;20413;-87
2023/01/06 01:17:25;;;;;;;5.38;1.80;;;11.20;97.30;;;;;;4805855;29;20566;-87
2023/01/06 01:19:56;;;;;;;4.35;2.08;;;11.20;97.30;;;;;;4796860;29;20547;-88
2023/01/06 01:22:31;;;;;;;4.10;1.88;;;11.20;97.20;;;;;;4838892;29;20141;-87
2023/01/06 01:25:00;;;;;;;5.32;1.90;;;11.20;97.20;;;;;;4807747;29;20055;-88
2023/01/06 01:27:32;;;;;;;3.65;2.08;;;11.20;97.20;;;;;;4805570;29;20138;-88
2023/01/06 01:29:59;;;;;;;5.70;2.53;;;11.20;97.20;;;;;;4831755;29;20078;-87
2023/01/06 01:32:27;;;;;;;4.10;1.77;;;11.20;97.20;;;;;;4813028;29;20372;-87
2023/01/06 01:34:54;;;;;;;3.00;1.48;;;11.20;97.50;;;;;;4805757;29;20050;-88
2023/01/06 01:37:22;;;;;;;5.25;2.00;;;11.20;97.20;;;;;;4831840;29;20050;-88
2023/01/06 01:39:49;;;;;;;4.00;1.45;;;11.20;97.20;;;;;;4801536;29;20091;-87
2023/01/06 01:42:19;;;;;;;5.72;1.42;;;11.10;97.20;;;;;;4808769;29;20051;-88
2023/01/06 01:44:59;;;;;;;5.30;1.58;;;11.20;97.30;;;;;;4821823;29;20508;-87
2023/01/06 01:47:36;;;;;;;1.98;0.95;;;11.20;97.30;;;;;;4823241;29;20046;-87
2023/01/06 01:50:16;;;;;;;3.92;1.38;;;11.20;97.30;;;;;;4809636;29;20054;-87
2023/01/06 01:52:45;;;;;;;3.70;1.60;;;11.20;97.30;;;;;;4822974;29;20057;-87
2023/01/06 01:55:14;;;;;;;8.93;1.83;;;11.20;97.30;;;;;;4816801;29;20061;-87
2023/01/06 01:58:14;;;;;;;3.47;1.50;;;11.20;97.20;;;;;;4815273;29;20063;-88
2023/01/06 02:00:43;;;;;;;1.90;1.08;;;11.20;97.10;;;;;;4804911;29;20145;-88
2023/01/06 02:03:14;;;;;;;2.95;1.40;;;11.20;97.20;;;;;;4807834;29;20061;-88
2023/01/06 02:05:46;;;;;;;3.63;0.88;;;11.20;97.20;;;;;;4807956;29;20084;-87
2023/01/06 02:08:34;;;;;;;4.50;1.27;;;11.20;97.20;;;;;;4808568;29;20058;-88
2023/01/06 02:11:04;;;;;;;2.75;1.20;;;11.20;97.20;;;;;;4809274;29;20053;-88
2023/01/06 02:13:33;;;;;;;3.20;1.17;;;11.20;97.20;;;;;;4808965;29;20046;-88
2023/01/06 02:16:24;;;;;;;5.15;1.27;;;11.20;97.10;;;;;;4827226;29;20138;-88
2023/01/06 02:19:08;;;;;;;3.50;1.58;;;11.20;97.00;;;;;;4808993;29;20046;-88
2023/01/06 02:22:21;;;;;;;3.75;1.25;;;11.20;97.00;;;;;;4811956;29;20528;-88
2023/01/06 02:25:25;;;;;;;3.47;1.20;;;11.20;96.90;;;;;;4796062;29;20565;-88
2023/01/06 02:28:10;;;;;;;2.38;1.10;;;11.20;96.90;;;;;;4799533;29;20107;-88
2023/01/06 02:30:51;;;;;;;3.17;1.38;;;11.20;96.80;;;;;;4826613;29;20397;-88
2023/01/06 02:33:29;;;;;;;3.33;1.17;;;11.20;96.70;;;;;;4831309;29;20137;-87
2023/01/06 02:36:35;;;;;;;3.47;0.95;;;11.20;97.00;;;;;;4826710;29;20054;-87
2023/01/06 02:39:13;;;;;;;4.07;1.35;;;11.20;96.70;;;;;;4826412;29;20050;-88
2023/01/06 02:41:49;;;;;;;2.60;0.80;;;11.20;96.70;;;;;;4826331;29;20099;-87
2023/01/06 02:44:56;;;;;;;6.28;1.90;;;11.10;96.70;;;;;;4825955;29;20081;-87
2023/01/06 02:47:51;;;;;;;1.75;0.88;;;11.20;96.70;;;;;;4814097;29;20046;-88
2023/01/06 02:51:03;;;;;;;1.58;0.68;;;11.10;96.60;;;;;;4779668;29;20065;-88
2023/01/06 02:53:33;;;;;;;2.60;0.70;;;11.10;96.70;;;;;;4811471;29;20103;-88
2023/01/06 02:56:01;;;;;;;3.28;0.60;;;11.10;96.70;;;;;;4815874;29;20038;-88
2023/01/06 02:58:34;;;;;;;2.00;0.60;;;11.10;96.80;;;;;;4826484;29;20072;-88
2023/01/06 03:01:21;;;;;;;3.17;0.82;;;11.10;96.80;;;;;;4826142;29;20050;-88
2023/01/06 03:03:51;;;;;;;2.08;0.80;;;11.10;96.80;;;;;;4811602;29;20050;-88
2023/01/06 03:06:26;;;;;;;1.80;0.80;;;11.10;96.80;;;;;;4811461;29;20046;-88
2023/01/06 03:08:55;;;;;;;1.35;0.50;;;11.00;96.80;;;;;;4810964;29;20078;-86
2023/01/06 03:11:26;;;;;;;2.30;0.30;;;11.00;96.80;;;;;;4823392;29;20134;-87
2023/01/06 03:13:58;;;;;;;1.88;0.65;;;11.00;96.90;;;;;;4810721;29;20552;-87
2023/01/06 03:16:26;;;;;;;2.83;0.80;;;11.10;96.90;;;;;;4810871;29;20050;-87
2023/01/06 03:18:54;;;;;;;1.83;0.70;;;11.10;96.90;;;;;;4817717;29;20501;-87
2023/01/06 03:21:34;;;;;;;1.75;0.47;;;11.00;96.90;;;;;;4810937;29;20050;-87
2023/01/06 03:24:04;;;;;;;2.20;0.75;;;11.10;96.90;;;;;;4810504;29;20054;-87
2023/01/06 03:26:32;;;;;;;3.92;0.90;;;11.10;96.80;;;;;;4815431;29;20785;-87
2023/01/06 03:29:00;;;;;;;3.20;1.00;;;11.10;96.70;;;;;;4823782;29;20145;-87
2023/01/06 03:31:50;;;;;;;2.78;0.65;;;11.10;96.70;;;;;;4816439;29;20087;-87
2023/01/06 03:34:43;;;;;;;1.95;0.50;;;11.10;96.70;;;;;;4834855;29;20126;-87
2023/01/06 03:37:28;;;;;;;4.00;0.82;;;11.10;96.80;;;;;;4792856;29;20051;-87
2023/01/06 03:40:06;;;;;;;1.77;0.60;;;11.10;96.70;;;;;;4804520;29;20477;-87
2023/01/06 03:45:42;;;;;;;1.50;0.47;;;11.10;96.70;;;;;;4822108;29;20061;-87
2023/01/06 03:48:10;;;;;;;2.60;0.82;;;11.10;96.70;;;;;;4822093;29;20074;-87
2023/01/06 03:50:45;;;;;;;3.03;0.60;;;11.10;96.70;;;;;;4812656;29;20137;-87
2023/01/06 03:53:33;;;;;;;1.92;0.63;;;11.10;96.60;;;;;;4811949;29;20046;-87
2023/01/06 03:56:28;;;;;;;1.55;0.50;;;11.10;96.50;;;;;;4825149;29;20057;-87
2023/01/06 03:59:01;;;;;;;2.80;0.60;;;11.10;96.50;;;;;;4826931;29;20046;-87
2023/01/06 04:01:33;;;;;;;2.17;0.60;;;11.10;96.50;;;;;;4810143;29;20046;-86
2023/01/06 04:04:02;;;;;;;2.22;0.73;;;11.10;96.60;;;;;;4810016;29;20050;-87
2023/01/06 04:06:30;;;;;;;3.28;0.85;;;11.10;96.50;;;;;;4811924;29;20057;-87
2023/01/06 04:08:59;;;;;;;3.80;0.60;;;11.10;96.40;;;;;;4795816;29;20058;-87
2023/01/06 04:14:12;;;;;;;1.45;0.60;;;11.10;96.30;;;;;;4812613;29;20547;-87
2023/01/06 04:16:40;;;;;;;2.20;0.50;;;11.10;96.20;;;;;;4820964;29;20054;-86
2023/01/06 04:19:08;;;;;;;2.28;0.57;;;11.10;96.20;;;;;;4803452;29;20053;-87
2023/01/06 04:21:36;;;;;;;2.65;0.52;;;11.10;96.10;;;;;;4822103;29;20050;-87
2023/01/06 04:24:04;;;;;;;2.13;0.55;;;11.20;96.10;;;;;;4809694;29;20510;-87
2023/01/06 04:26:35;;;;;;;2.67;0.70;;;11.10;96.00;;;;;;4814148;29;20054;-87
2023/01/06 04:29:02;;;;;;;1.92;0.70;;;11.10;96.00;;;;;;4791525;29;20111;-87
2023/01/06 04:31:33;;;;;;;2.53;0.47;;;11.10;95.90;;;;;;4818855;29;20469;-86
2023/01/06 04:34:02;;;;;;;2.60;0.40;;;11.10;95.80;;;;;;4812765;29;20141;-87
2023/01/06 04:36:30;;;;;;;1.15;0.40;;;11.10;95.80;;;;;;4816223;29;20529;-88
2023/01/06 04:38:57;;;;;;;1.08;0.52;;;11.10;95.80;;;;;;4809138;29;20038;-87
2023/01/06 04:41:24;;;;;;;2.25;0.65;;;11.10;95.70;;;;;;4813650;29;20058;-88
2023/01/06 04:43:51;;;;;;;1.30;0.50;;;11.10;95.80;;;;;;4806914;29;20437;-87
2023/01/06 04:46:19;;;;;;;2.92;0.60;;;11.10;95.60;;;;;;4806379;29;20065;-87
2023/01/06 04:48:48;;;;;;;2.72;0.40;;;11.20;95.50;;;;;;4809007;29;20573;-88
2023/01/06 04:51:15;;;;;;;2.80;0.52;;;11.10;95.50;;;;;;4808923;29;20051;-87
2023/01/06 04:53:42;;;;;;;2.33;0.40;;;11.20;95.40;;;;;;4799254;29;20042;-87
2023/01/06 04:56:13;;;;;;;4.05;0.45;;;11.20;95.40;;;;;;4808738;29;20055;-87
2023/01/06 04:58:41;;;;;;;1.65;0.60;;;11.20;95.40;;;;;;4805973;29;20047;-87
2023/01/06 05:01:10;;;;;;;3.60;0.43;;;11.20;95.20;;;;;;4823881;29;20054;-87
2023/01/06 05:03:38;;;;;;;2.67;0.50;;;11.20;95.20;;;;;;4824456;29;20095;-86
2023/01/06 05:06:08;;;;;;;5.10;0.85;;;11.20;95.10;;;;;;4839085;29;20051;-87
2023/01/06 05:08:37;;;;;;;1.38;0.47;;;11.20;95.00;;;;;;4810349;29;20474;-87
2023/01/06 05:11:09;;;;;;;1.08;0.40;;;11.20;95.10;;;;;;4812113;29;20069;-87
2023/01/06 05:13:37;;;;;;;2.90;0.40;;;11.20;95.00;;;;;;4808681;29;20425;-86
2023/01/06 05:16:13;;;;;;;1.48;0.50;;;11.20;95.10;;;;;;4823001;29;20525;-86
2023/01/06 05:18:40;;;;;;;1.20;0.55;;;11.20;94.90;;;;;;4824009;29;20126;-86
2023/01/06 05:21:07;;;;;;;1.55;0.50;;;11.20;94.90;;;;;;4822423;29;20186;-85
2023/01/06 05:23:36;;;;;;;2.13;0.63;;;11.20;94.90;;;;;;4793824;29;20042;-88
2023/01/06 05:26:04;;;;;;;1.13;0.30;;;11.20;94.90;;;;;;4816813;29;20454;-87
2023/01/06 05:28:34;;;;;;;1.95;0.50;;;11.20;94.90;;;;;;4821170;29;20413;-87
2023/01/06 05:31:03;;;;;;;1.42;0.20;;;11.20;94.90;;;;;;4805294;29;20055;-87
2023/01/06 05:33:31;;;;;;;1.77;0.45;;;11.20;95.00;;;;;;4804007;29;20107;-87
2023/01/06 05:36:00;;;;;;;4.57;0.52;;;11.20;95.00;;;;;;4823986;29;20049;-87
2023/01/06 05:38:27;;;;;;;2.13;0.35;;;11.20;95.10;;;;;;4819069;29;20042;-87
2023/01/06 05:40:55;;;;;;;1.00;0.40;;;11.20;95.00;;;;;;4793804;29;20050;-87
2023/01/06 05:43:24;;;;;;;1.45;0.40;;;11.20;94.90;;;;;;4832615;29;20390;-87
2023/01/06 05:45:53;;;;;;;1.33;0.45;;;11.20;95.00;;;;;;4815195;29;20149;-87
2023/01/06 05:48:24;;;;;;;2.90;0.43;;;11.20;94.80;;;;;;4824012;29;20073;-87
2023/01/06 05:50:52;;;;;;;1.70;0.50;;;11.20;94.80;;;;;;4808192;29;20054;-88
2023/01/06 05:53:19;;;;;;;1.15;0.50;;;11.20;94.80;;;;;;4808276;29;20111;-87
2023/01/06 05:55:46;;;;;;;2.28;0.30;;;11.20;94.80;;;;;;4780861;29;20458;-87
2023/01/06 05:58:13;;;;;;;2.58;0.50;;;11.30;94.80;;;;;;4838498;29;20080;-87
2023/01/06 06:00:40;;;;;;;1.02;0.30;;;11.30;94.80;;;;;;4808125;29;20046;-87
2023/01/06 06:03:07;;;;;;;1.38;0.38;;;11.30;94.80;;;;;;4805432;29;20506;-87
2023/01/06 06:05:35;;;;;;;1.08;0.57;;;11.30;94.80;;;;;;4818458;29;20054;-87
2023/01/06 06:08:02;;;;;;;2.25;0.30;;;11.30;94.90;;;;;;4813628;29;20046;-89
2023/01/06 06:10:29;;;;;;;0.60;0.30;;;11.30;94.90;;;;;;4818373;29;20058;-88
2023/01/06 06:13:17;;;;;;;0.50;0.25;;;11.30;95.10;;;;;;4797308;29;20046;-95
2023/01/06 06:19:45;;;;;;;;;;;11.20;94.90;;;;;;4825092;29;20058;-88
2023/01/06 06:22:12;;;;;;;1.67;0.60;;;11.00;95.00;;;;;;4800803;29;19925;-88
2023/01/06 06:24:39;;;;;;;1.83;0.50;;;10.90;95.20;;;;;;4811717;29;20050;-88
2023/01/06 06:27:31;;;;;;;1.02;0.40;;;10.80;95.40;;;;;;4797976;29;20050;-96
2023/01/06 06:30:09;;;;;;;2.27;0.50;;;10.80;95.50;;;;;;4813163;29;20058;-88
2023/01/06 06:32:36;;;;;;;1.02;0.57;;;10.80;95.70;;;;;;4827349;29;20081;-87
2023/01/06 06:35:03;;;;;;;1.65;0.55;;;10.80;95.70;;;;;;4821954;29;20061;-96
2023/01/06 06:38:12;;;;;;;1.60;0.40;;;10.80;95.70;;;;;;4809677;29;20058;-96
2023/01/06 06:45:31;;;;;;;2.20;0.60;;;10.90;95.80;;;;;;4828332;29;20036;-96
2023/01/06 06:48:18;;;;;;;0.98;0.50;;;10.90;95.70;;;;;;4801870;29;20125;-93
2023/01/06 06:50:45;;;;;;;2.53;0.60;;;10.90;95.70;;;;;;4811589;29;20042;-87
2023/01/06 06:53:12;;;;;;;1.80;0.50;;;10.90;95.70;;;;;;4811755;29;20386;-92
2023/01/06 06:55:39;;;;;;;1.15;0.60;;;10.90;95.70;;;;;;4826028;29;20106;-88
2023/01/06 06:58:13;;;;;;;1.65;0.68;;;11.00;95.70;;;;;;4811737;29;20046;-95
2023/01/06 07:00:40;;;;;;;1.10;0.60;;;11.00;95.60;;;;;;4826621;29;20064;-88
2023/01/06 07:03:07;;;;;;;1.30;0.50;;;11.00;95.70;;;;;;4811107;29;21069;-88
2023/01/06 07:05:35;;;;;;;1.70;0.75;;;11.00;95.70;;;;;;4808130;29;20059;-89
2023/01/06 07:08:03;;;;;;;1.60;0.60;;;11.00;95.70;;;;;;4829049;29;20058;-88
2023/01/06 07:10:30;;;;;;;3.03;0.80;;;11.00;95.80;;;;;;4808062;29;20100;-86
2023/01/06 07:12:57;;;;;;;1.42;0.73;;;11.00;95.70;;;;;;4824802;29;20501;-87
2023/01/06 07:15:24;;;;;;;1.15;0.63;;;11.00;95.80;;;;;;4810890;29;20110;-88
2023/01/06 07:17:51;;;;;;;1.95;0.68;;;11.00;95.70;;;;;;4796147;29;20062;-88
2023/01/06 07:20:18;;;;;;;1.40;0.52;;;11.10;95.70;;;;;;4819645;29;20048;-87
2023/01/06 07:22:45;;;;;;;2.22;0.80;;;11.10;95.60;;;;;;4810600;29;20519;-87
2023/01/06 07:25:12;;;;;;;2.25;0.60;;;11.10;95.60;;;;;;4795634;29;20054;-87
2023/01/06 07:27:40;;;;;;;3.45;0.80;;;11.10;95.60;;;;;;4807882;29;20049;-88
2023/01/06 07:30:10;;;;;;;5.63;1.05;;;11.10;95.60;;;;;;4822248;29;20578;-89
2023/01/06 07:32:37;;;;;;;2.65;0.90;;;11.10;95.60;;;;;;4825353;29;20046;-87
2023/01/06 07:35:05;;;;;;;4.40;0.90;;;11.20;95.60;;;;;;4793535;29;20452;-87
2023/01/06 07:37:32;;;;;;;1.50;0.80;;;11.10;95.60;;;;;;4821603;29;20081;-88
2023/01/06 07:39:59;;;;;;;1.73;1.02;;;11.00;95.80;;;;;;4792943;29;20057;-92
2023/01/06 07:42:39;;;;;;;2.58;1.15;;;10.90;96.00;;;;;;4794205;29;20051;-92
2023/01/06 07:45:21;;;;;;;3.78;1.13;;;10.80;96.30;;;;;;4835011;29;20062;-92
2023/01/06 07:47:50;;;;;;;1.75;1.00;;;10.70;96.40;;;;;;4784742;29;20107;-93
2023/01/06 07:50:38;;;;;;;5.18;1.50;;;10.70;96.60;;;;;;4830103;29;20058;-88
2023/01/06 07:53:05;;;;;;;3.17;1.77;;;10.60;97.00;;;;;;4812607;29;20046;-89
2023/01/06 07:55:32;;;;;;;3.15;1.80;;;10.60;97.20;;;;;;4826872;29;20145;-90
2023/01/06 07:58:07;;;;;;;2.83;1.60;;;10.50;97.30;;;;;;4807671;29;20065;-89
2023/01/06 08:00:35;;;;;;;3.08;2.20;;;10.50;97.40;;;;;;4786311;29;20054;-90
2023/01/06 08:03:04;;;;;;;2.90;2.10;;;10.50;97.80;;;;;;4808061;29;20150;-90
2023/01/06 08:05:31;;;;;;;3.33;1.85;;;10.50;97.80;;;;;;4810779;29;20111;-90
2023/01/06 08:07:58;;;;;;;4.20;2.90;;;10.50;98.00;;;;;;4796120;29;20054;-91
2023/01/06 08:10:26;;;;;;;5.82;3.38;;;10.50;98.20;;;;;;4810724;29;20145;-91
2023/01/06 08:12:53;;;;;;;4.63;3.05;;;10.50;98.40;;;;;;4807341;29;20050;-91
2023/01/06 08:15:20;;;;;;;5.93;3.90;;;10.50;98.40;;;;;;4803575;29;20047;-91
2023/01/06 08:17:52;;;;;;;6.07;3.60;;;10.40;98.50;;;;;;4811791;29;20119;-91
2023/01/06 08:20:19;;;;;;;4.33;3.37;;;10.50;98.60;;;;;;4810746;29;20485;-91
2023/01/06 08:22:47;;;;;;;5.15;3.92;;;10.40;98.60;;;;;;4818646;29;20299;-90
2023/01/06 08:25:18;;;;;;;5.18;3.60;;;10.50;98.80;;;;;;4817859;29;20053;-91
2023/01/06 08:27:52;;;;;;;5.18;3.65;;;10.50;98.80;;;;;;4825200;29;20054;-91
2023/01/06 08:30:24;;;;;;;5.80;3.80;;;10.40;98.90;;;;;;4823473;29;20054;-91
2023/01/06 08:32:54;;;;;;;5.95;3.60;;;10.50;98.90;;;;;;4809687;29;20146;-92
2023/01/06 08:35:22;;;;;;;4.85;3.53;;;10.40;98.90;;;;;;4811319;29;20043;-91
2023/01/06 08:37:49;;;;;;;4.00;2.97;;;10.40;99.00;;;;;;4810383;29;20050;-91
2023/01/06 08:40:18;;;;;;;5.43;3.45;;;10.40;99.00;;;;;;4795080;29;20047;-91
2023/01/06 08:42:45;;;;;;;4.35;2.90;;;10.30;99.10;;;;;;4820534;29;20058;-91
2023/01/06 08:45:12;;;;;;;5.05;2.63;;;10.40;99.10;;;;;;4816075;29;20058;-91
2023/01/06 08:47:39;;;;;;;3.72;2.72;;;10.40;99.10;;;;;;4795722;29;20114;-91
2023/01/06 08:50:07;;;;;;;3.55;2.55;;;10.40;99.10;;;;;;4815361;29;20064;-91
2023/01/06 08:52:34;;;;;;;4.05;2.70;;;10.50;99.10;;;;;;4821553;29;20051;-91
2023/01/06 08:55:01;;;;;;;3.55;2.53;;;10.50;99.10;;;;;;4823601;29;20058;-91
2023/01/06 08:57:28;;;;;;;3.67;2.88;;;10.50;99.00;;;;;;4809886;29;20493;-91
2023/01/06 08:59:55;;;;;;;4.40;3.10;;;10.60;99.10;;;;;;4794971;29;20179;-91
2023/01/06 09:02:28;;;;;;;8.02;3.20;;;10.60;99.00;;;;;;4809807;29;20054;-91
2023/01/06 09:04:58;;;;;;;4.10;2.80;;;10.60;99.00;;;;;;4794816;29;20056;-91
2023/01/06 09:07:25;;;;;;;4.88;2.92;;;10.60;98.90;;;;;;4807629;29;20486;-91
2023/01/06 09:09:55;;;;;;;4.53;2.85;;;10.70;98.90;;;;;;4820601;29;20501;-91
2023/01/06 09:12:22;;;;;;;4.75;3.25;;;10.60;98.90;;;;;;4812230;29;20137;-90
2023/01/06 09:14:49;;;;;;;4.13;2.63;;;10.70;98.90;;;;;;4810573;29;20046;-90
2023/01/06 09:17:16;;;;;;;4.20;2.20;;;10.70;98.90;;;;;;4815954;29;20505;-91
2023/01/06 09:19:44;;;;;;;4.05;1.88;;;10.70;98.90;;;;;;4816845;29;20516;-91
2023/01/06 09:22:14;;;;;;;3.35;1.85;;;10.70;98.80;;;;;;4809478;29;20075;-91
2023/01/06 09:24:41;;;;;;;5.25;1.90;;;10.80;98.80;;;;;;4809256;29;20081;-90
2023/01/06 09:27:08;;;;;;;5.60;2.20;;;10.80;98.80;;;;;;4808907;29;20054;-90
2023/01/06 09:29:35;;;;;;;3.10;1.65;;;10.80;98.70;;;;;;4816359;29;20066;-91
2023/01/06 09:32:02;;;;;;;2.45;1.30;;;10.80;98.70;;;;;;4839136;29;20065;-91
2023/01/06 09:34:32;;;;;;;2.55;1.52;;;10.90;98.70;;;;;;4818350;29;20129;-91
2023/01/06 09:36:59;;;;;;;4.68;1.40;;;10.90;98.60;;;;;;4830367;29;20042;-90
2023/01/06 09:39:26;;;;;;;4.53;1.10;;;10.90;98.50;;;;;;4808716;29;20070;-91
2023/01/06 09:42:15;;;;;;;4.25;1.27;;;10.90;98.50;;;;;;4820774;29;20054;-91
2023/01/06 09:44:56;;;;;;;4.47;1.23;;;10.90;98.40;;;;;;4823491;29;20064;-87
2023/01/06 09:47:39;;;;;;;3.40;1.00;;;10.90;98.30;;;;;;4818286;29;20144;-87
2023/01/06 09:50:30;;;;;;;5.85;1.13;;;11.00;98.20;;;;;;4807487;29;20047;-86
2023/01/06 09:53:02;;;;;;;5.18;1.10;;;11.00;98.10;;;;;;4810991;29;20054;-91
2023/01/06 09:55:56;;;;;;;6.00;1.42;;;11.00;98.10;;;;;;4813105;29;20082;-90
2023/01/06 09:58:34;;;;;;;4.93;1.35;;;11.00;98.00;;;;;;4809321;29;20053;-90
2023/01/06 10:01:06;;;;;;;2.97;1.30;;;11.00;97.90;;;;;;4809017;29;20061;-90
2023/01/06 10:03:33;;;;;;;18.02;2.15;;;11.00;97.90;;;;;;4814670;29;20077;-90
2023/01/06 10:06:22;;;;;;;3.85;1.30;;;11.00;97.90;;;;;;4821914;29;20054;-90
2023/01/06 10:09:12;;;;;;;2.55;0.90;;;11.10;97.80;;;;;;4824376;29;20082;-90
2023/01/06 10:12:21;;;;;;;5.13;1.55;;;11.10;97.80;;;;;;4808495;29;20061;-90
2023/01/06 10:15:37;;;;;;;7.63;1.73;;;11.20;97.80;;;;;;4808572;29;20054;-90
2023/01/06 10:18:19;;;;;;;5.80;1.40;;;11.30;97.50;;;;;;4804817;29;20065;-89
2023/01/06 10:21:08;;;;;;;4.88;1.02;;;11.30;97.30;;;;;;4805863;29;20051;-88
2023/01/06 10:23:38;;;;;;;2.92;0.80;;;11.30;97.20;;;;;;4820621;29;20059;-89
2023/01/06 10:26:13;;;;;;;4.70;0.77;;;11.20;97.20;;;;;;4823639;29;20054;-91
2023/01/06 10:28:43;;;;;;;4.63;0.70;;;11.20;97.30;;;;;;4817540;29;20115;-92
2023/01/06 10:31:15;;;;;;;3.95;1.00;;;11.20;97.20;;;;;;4816758;29;20061;-94
2023/01/06 10:33:57;;;;;;;6.60;1.10;;;11.20;97.10;;;;;;4823847;29;20062;-91
2023/01/06 10:36:47;;;;;;;6.95;0.80;;;11.20;97.00;;;;;;4811970;29;20432;-89
2023/01/06 10:40:10;;;;;;;3.25;0.68;;;11.20;96.80;;;;;;4825403;29;20050;-93
2023/01/06 10:47:38;;;;;;;4.13;0.70;;;11.00;96.70;;;;;;4826062;29;20083;-93
2023/01/06 10:50:16;;;;;;;8.20;1.40;;;11.00;96.60;;;;;;4824913;29;20058;-92
2023/01/06 10:57:19;;;;;;;4.15;0.50;;;11.00;96.40;;;;;;4833154;29;20035;-91
2023/01/06 11:00:14;;;;;;;5.15;0.40;;;11.00;96.10;;;;;;4757130;29;20081;-90
2023/01/06 11:02:49;;;;;;;1.95;0.40;;;11.10;96.10;;;;;;4827225;29;20074;-88
2023/01/06 11:05:24;;;;;;;2.47;0.40;;;11.20;95.90;;;;;;4819138;29;20462;-89
2023/01/06 11:07:57;;;;;;;4.75;0.52;;;11.20;95.90;;;;;;4811278;29;20520;-88
2023/01/06 11:10:37;;;;;;;3.97;0.50;;;11.20;95.20;;;;;;4823313;29;20058;-89
2023/01/06 11:13:15;;;;;;;8.05;1.98;;;11.20;94.90;;;;;;4793086;29;20172;-88
2023/01/06 11:15:42;;;;;;;3.55;0.50;;;11.20;94.60;;;;;;4793104;29;20699;-88
2023/01/06 11:18:26;;;;;;;6.97;0.70;;;11.20;94.70;;;;;;4810715;29;20414;-90
2023/01/06 11:21:13;;;;;;;5.10;0.40;;;11.20;94.40;;;;;;4816179;29;20046;-91
2023/01/06 11:23:43;;;;;;;4.40;0.52;;;11.10;94.10;;;;;;4811845;29;20054;-91
2023/01/06 11:26:22;;;;;;;9.32;0.60;;;11.10;93.80;;;;;;4807859;29;20114;-90
2023/01/06 11:28:53;;;;;;;3.45;0.47;;;11.10;93.90;;;;;;4811030;29;20065;-90
2023/01/06 11:31:24;;;;;;;4.65;0.57;;;11.10;93.60;;;;;;4811039;29;20149;-90
2023/01/06 11:34:01;;;;;;;3.55;0.68;;;11.10;93.80;;;;;;4811337;29;20050;-90
2023/01/06 11:36:33;;;;;;;3.03;0.40;;;11.10;93.80;;;;;;4816244;29;20050;-90
2023/01/06 11:39:03;;;;;;;2.45;0.40;;;11.10;93.70;;;;;;4826499;29;20137;-90
2023/01/06 11:41:59;;;;;;;2.70;0.65;;;11.10;93.40;;;;;;4833233;29;20047;-90
2023/01/06 11:44:39;;;;;;;3.15;0.43;;;11.10;93.00;;;;;;4795898;29;20062;-90
2023/01/06 11:47:21;;;;;;;3.55;0.50;;;11.10;92.90;;;;;;4822682;29;20141;-89
2023/01/06 11:49:50;;;;;;;7.22;0.70;;;11.10;92.90;;;;;;4815157;29;20125;-88
2023/01/06 11:52:34;;;;;;;5.00;0.80;;;11.20;92.80;;;;;;4837662;29;20073;-87
2023/01/06 11:55:19;;;;;;;2.70;0.40;;;11.20;92.90;;;;;;4808078;29;20046;-88
2023/01/06 11:58:12;;;;;;;4.20;0.40;;;11.30;92.90;;;;;;4832494;29;20103;-87
2023/01/06 12:00:45;;;;;;;2.85;0.50;;;11.30;92.80;;;;;;4825389;29;20046;-84
2023/01/06 12:03:18;;;;;;;1.98;0.52;;;11.30;92.90;;;;;;4823743;29;20409;-83
2023/01/06 12:06:20;;;;;;;2.35;0.32;;;11.30;92.90;;;;;;4812095;29;20058;-87
2023/01/06 12:09:02;;;;;;;2.88;0.30;;;11.30;92.80;;;;;;4792763;29;20065;-86
2023/01/06 12:11:49;;;;;;;3.53;0.43;;;11.30;92.80;;;;;;4806165;29;20050;-84
2023/01/06 12:14:27;;;;;;;3.03;0.60;;;11.40;92.60;;;;;;4809171;29;20050;-84
2023/01/06 12:17:13;;;;;;;5.78;0.85;;;11.40;92.50;;;;;;4809879;29;20074;-85
2023/01/06 12:19:43;;;;;;;3.50;0.68;;;11.40;92.60;;;;;;4805924;29;20424;-86
2023/01/06 12:22:41;;;;;;;3.83;0.50;;;11.40;92.50;;;;;;4815972;29;20047;-84
2023/01/06 12:25:24;;;;;;;1.95;0.40;;;11.50;92.50;;;;;;4804302;29;20054;-85
2023/01/06 12:27:58;;;;;;;3.72;0.50;;;11.50;92.40;;;;;;4809638;29;20111;-85
2023/01/06 12:30:41;;;;;;;2.88;0.40;;;11.50;92.40;;;;;;4823973;29;20099;-85
2023/01/06 12:33:18;;;;;;;3.22;0.50;;;11.60;92.50;;;;;;4824268;29;20069;-84
2023/01/06 12:35:49;;;;;;;1.45;0.40;;;11.60;92.20;;;;;;4834552;29;20055;-85
2023/01/06 12:38:29;;;;;;;2.47;0.30;;;11.60;92.10;;;;;;4821192;29;20047;-85
2023/01/06 12:41:07;;;;;;;0.75;0.30;;;11.70;91.80;;;;;;4812522;29;20050;-86
2023/01/06 12:43:42;;;;;;;3.95;0.30;;;11.80;91.70;;;;;;4809676;29;20145;-86
2023/01/06 12:46:16;;;;;;;2.40;0.30;;;11.80;91.50;;;;;;4819935;29;20450;-88
2023/01/06 12:48:49;;;;;;;2.90;0.40;;;11.80;91.30;;;;;;4824758;29;20054;-86
2023/01/06 12:51:27;;;;;;;3.63;0.40;;;11.80;91.00;;;;;;4806715;29;20088;-86
2023/01/06 12:54:08;;;;;;;2.80;0.30;;;11.80;90.90;;;;;;4808631;29;20050;-85
2023/01/06 12:56:38;;;;;;;4.80;0.75;;;11.80;91.10;;;;;;4826601;29;20129;-85
2023/01/06 12:59:28;;;;;;;3.15;0.40;;;11.80;90.80;;;;;;4811710;29;20077;-85
2023/01/06 13:02:21;;;;;;;2.78;0.50;;;11.90;90.60;;;;;;4823386;29;20057;-86
2023/01/06 13:05:17;;;;;;;0.98;0.30;;;11.90;90.30;;;;;;4808526;29;20111;-86
2023/01/06 13:07:53;;;;;;;1.40;0.20;;;11.90;90.50;;;;;;4820281;29;20050;-85
2023/01/06 13:10:40;;;;;;;1.48;0.50;;;11.90;90.40;;;;;;4823451;29;20061;-85
2023/01/06 13:13:55;;;;;;;1.90;0.40;;;11.90;90.00;;;;;;4808943;29;20125;-84
2023/01/06 13:16:44;;;;;;;4.43;0.73;;;11.90;90.10;;;;;;4778742;29;20051;-85
2023/01/06 13:19:38;;;;;;;2.30;0.75;;;12.00;89.00;;;;;;4808826;29;20107;-85
2023/01/06 13:22:09;;;;;;;2.30;0.28;;;12.00;88.40;;;;;;4823532;29;20046;-86
2023/01/06 13:24:48;;;;;;;2.20;0.20;;;12.00;88.60;;;;;;4808519;29;20062;-87
2023/01/06 13:27:28;;;;;;;1.20;0.20;;;12.10;88.40;;;;;;4791167;29;20053;-86
2023/01/06 13:30:04;;;;;;;2.95;0.40;;;12.10;87.80;;;;;;4819910;29;20069;-87
2023/01/06 13:32:40;;;;;;;1.63;0.30;;;12.20;86.60;;;;;;4809178;29;20391;-87
2023/01/06 13:35:27;;;;;;;1.90;0.28;;;12.20;86.20;;;;;;4811950;29;20157;-90
2023/01/06 13:38:16;;;;;;;1.95;0.25;;;12.20;85.50;;;;;;4799992;29;20111;-88
2023/01/06 13:40:45;;;;;;;4.38;0.38;;;12.20;85.50;;;;;;4809084;29;20046;-88
2023/01/06 13:43:34;;;;;;;2.92;0.32;;;12.20;85.10;;;;;;4809269;29;20054;-88
2023/01/06 13:46:13;;;;;;;3.25;0.55;;;12.20;84.90;;;;;;4823595;29;20111;-83
2023/01/06 13:49:01;;;;;;;;;;;12.30;84.10;;;;;;4817179;29;20148;-83
2023/01/06 13:51:33;;;;;;;0.73;0.20;;;12.20;84.40;;;;;;4807921;29;20027;-83